sensor_id;sensor_type;location;lat;lon;timestamp;P1;durP1;ratioP1;P2;durP2;ratioP2
3185;SDS011;1604;53.700;10.252;2023-07-31T00:01:41;9.83;;;4.43;;
3185;SDS011;1604;53.700;10.252;2023-07-31T00:04:43;7.47;;;3.97;;
3185;SDS011;1604;53.700;10.252;2023-07-31T00:07:45;9.43;;;3.60;;
3185;SDS011;1604;53.700;10.252;2023-07-31T00:10:47;3.50;;;2.90;;
3185;SDS011;1604;53.700;10.252;2023-07-31T00:13:54;6.33;;;3.40;;
3185;SDS011;1604;53.700;10.252;2023-07-31T00:16:55;7.23;;;3.20;;
3185;SDS011;1604;53.700;10.252;2023-07-31T00:19:57;7.83;;;3.10;;
3185;SDS011;1604;53.700;10.252;2023-07-31T00:22:59;6.87;;;3.80;;
3185;SDS011;1604;53.700;10.252;2023-07-31T00:26:01;4.93;;;2.90;;
3185;SDS011;1604;53.700;10.252;2023-07-31T00:29:04;6.10;;;3.47;;
3185;SDS011;1604;53.700;10.252;2023-07-31T00:32:07;8.60;;;3.17;;
3185;SDS011;1604;53.700;10.252;2023-07-31T00:35:09;9.43;;;3.00;;
3185;SDS011;1604;53.700;10.252;2023-07-31T00:38:10;4.43;;;2.97;;
3185;SDS011;1604;53.700;10.252;2023-07-31T00:41:12;7.03;;;3.60;;
3185;SDS011;1604;53.700;10.252;2023-07-31T00:44:16;17.73;;;3.50;;
3185;SDS011;1604;53.700;10.252;2023-07-31T00:47:18;6.43;;;3.60;;
3185;SDS011;1604;53.700;10.252;2023-07-31T00:50:19;7.33;;;3.23;;
3185;SDS011;1604;53.700;10.252;2023-07-31T00:53:23;14.37;;;3.60;;
3185;SDS011;1604;53.700;10.252;2023-07-31T00:56:26;4.90;;;3.07;;
3185;SDS011;1604;53.700;10.252;2023-07-31T00:59:31;5.23;;;3.43;;
3185;SDS011;1604;53.700;10.252;2023-07-31T01:02:33;7.97;;;3.70;;
3185;SDS011;1604;53.700;10.252;2023-07-31T01:05:36;6.90;;;3.50;;
3185;SDS011;1604;53.700;10.252;2023-07-31T01:08:48;12.20;;;4.20;;
3185;SDS011;1604;53.700;10.252;2023-07-31T01:11:56;18.73;;;3.87;;
3185;SDS011;1604;53.700;10.252;2023-07-31T01:15:06;7.23;;;2.90;;
3185;SDS011;1604;53.700;10.252;2023-07-31T01:18:11;12.60;;;3.80;;
3185;SDS011;1604;53.700;10.252;2023-07-31T01:21:18;12.77;;;4.13;;
3185;SDS011;1604;53.700;10.252;2023-07-31T01:24:34;6.93;;;2.90;;
3185;SDS011;1604;53.700;10.252;2023-07-31T01:27:44;16.80;;;4.57;;
3185;SDS011;1604;53.700;10.252;2023-07-31T01:30:54;4.90;;;3.20;;
3185;SDS011;1604;53.700;10.252;2023-07-31T01:34:00;4.33;;;3.20;;
3185;SDS011;1604;53.700;10.252;2023-07-31T01:37:03;13.40;;;4.23;;
3185;SDS011;1604;53.700;10.252;2023-07-31T01:40:06;14.60;;;4.20;;
3185;SDS011;1604;53.700;10.252;2023-07-31T01:43:10;6.10;;;4.20;;
3185;SDS011;1604;53.700;10.252;2023-07-31T01:46:12;5.07;;;3.47;;
3185;SDS011;1604;53.700;10.252;2023-07-31T01:49:14;13.40;;;3.97;;
3185;SDS011;1604;53.700;10.252;2023-07-31T01:52:16;7.40;;;3.43;;
3185;SDS011;1604;53.700;10.252;2023-07-31T01:55:18;7.43;;;3.40;;
3185;SDS011;1604;53.700;10.252;2023-07-31T01:58:21;14.03;;;3.50;;
3185;SDS011;1604;53.700;10.252;2023-07-31T02:01:23;9.90;;;4.00;;
3185;SDS011;1604;53.700;10.252;2023-07-31T02:04:25;10.93;;;3.90;;
3185;SDS011;1604;53.700;10.252;2023-07-31T02:07:27;5.00;;;4.13;;
3185;SDS011;1604;53.700;10.252;2023-07-31T02:10:29;4.50;;;3.63;;
3185;SDS011;1604;53.700;10.252;2023-07-31T02:13:32;5.87;;;3.43;;
3185;SDS011;1604;53.700;10.252;2023-07-31T02:16:34;4.07;;;3.67;;
3185;SDS011;1604;53.700;10.252;2023-07-31T02:19:36;8.60;;;3.73;;
3185;SDS011;1604;53.700;10.252;2023-07-31T02:22:38;7.03;;;3.90;;
3185;SDS011;1604;53.700;10.252;2023-07-31T02:25:41;6.70;;;3.73;;
3185;SDS011;1604;53.700;10.252;2023-07-31T02:28:44;10.70;;;3.70;;
3185;SDS011;1604;53.700;10.252;2023-07-31T02:31:46;9.13;;;5.60;;
3185;SDS011;1604;53.700;10.252;2023-07-31T02:34:48;12.13;;;4.70;;
3185;SDS011;1604;53.700;10.252;2023-07-31T02:37:50;7.90;;;4.50;;
3185;SDS011;1604;53.700;10.252;2023-07-31T02:40:52;12.60;;;4.10;;
3185;SDS011;1604;53.700;10.252;2023-07-31T02:43:55;8.20;;;3.50;;
3185;SDS011;1604;53.700;10.252;2023-07-31T02:46:57;5.93;;;4.43;;
3185;SDS011;1604;53.700;10.252;2023-07-31T02:49:59;4.47;;;4.07;;
3185;SDS011;1604;53.700;10.252;2023-07-31T02:53:02;14.73;;;5.03;;
3185;SDS011;1604;53.700;10.252;2023-07-31T02:56:04;11.33;;;4.83;;
3185;SDS011;1604;53.700;10.252;2023-07-31T02:59:07;19.00;;;5.00;;
3185;SDS011;1604;53.700;10.252;2023-07-31T03:02:09;9.77;;;4.37;;
3185;SDS011;1604;53.700;10.252;2023-07-31T03:05:12;16.33;;;4.13;;
3185;SDS011;1604;53.700;10.252;2023-07-31T03:08:14;8.93;;;4.30;;
3185;SDS011;1604;53.700;10.252;2023-07-31T03:11:16;9.10;;;4.40;;
3185;SDS011;1604;53.700;10.252;2023-07-31T03:14:19;8.17;;;3.83;;
3185;SDS011;1604;53.700;10.252;2023-07-31T03:17:21;16.43;;;4.43;;
3185;SDS011;1604;53.700;10.252;2023-07-31T03:20:23;6.53;;;4.17;;
3185;SDS011;1604;53.700;10.252;2023-07-31T03:23:25;15.90;;;4.40;;
3185;SDS011;1604;53.700;10.252;2023-07-31T03:26:27;5.90;;;3.60;;
3185;SDS011;1604;53.700;10.252;2023-07-31T03:29:31;7.47;;;4.20;;
3185;SDS011;1604;53.700;10.252;2023-07-31T03:32:33;8.50;;;4.50;;
3185;SDS011;1604;53.700;10.252;2023-07-31T03:35:35;4.47;;;4.07;;
3185;SDS011;1604;53.700;10.252;2023-07-31T03:38:37;5.33;;;3.90;;
3185;SDS011;1604;53.700;10.252;2023-07-31T03:41:39;7.60;;;4.90;;
3185;SDS011;1604;53.700;10.252;2023-07-31T03:44:42;6.67;;;4.33;;
3185;SDS011;1604;53.700;10.252;2023-07-31T03:47:44;6.30;;;4.10;;
3185;SDS011;1604;53.700;10.252;2023-07-31T03:50:46;11.87;;;4.50;;
3185;SDS011;1604;53.700;10.252;2023-07-31T03:53:48;8.90;;;4.77;;
3185;SDS011;1604;53.700;10.252;2023-07-31T03:56:50;12.60;;;4.20;;
3185;SDS011;1604;53.700;10.252;2023-07-31T03:59:53;7.80;;;4.57;;
3185;SDS011;1604;53.700;10.252;2023-07-31T04:02:55;5.07;;;4.20;;
3185;SDS011;1604;53.700;10.252;2023-07-31T04:05:57;15.53;;;5.73;;
3185;SDS011;1604;53.700;10.252;2023-07-31T04:08:59;6.30;;;4.63;;
3185;SDS011;1604;53.700;10.252;2023-07-31T04:12:01;9.50;;;4.20;;
3185;SDS011;1604;53.700;10.252;2023-07-31T04:15:05;9.20;;;4.90;;
3185;SDS011;1604;53.700;10.252;2023-07-31T04:18:08;9.70;;;5.20;;
3185;SDS011;1604;53.700;10.252;2023-07-31T04:21:10;14.37;;;5.80;;
3185;SDS011;1604;53.700;10.252;2023-07-31T04:24:12;15.83;;;5.00;;
3185;SDS011;1604;53.700;10.252;2023-07-31T04:27:14;10.97;;;4.60;;
3185;SDS011;1604;53.700;10.252;2023-07-31T04:30:19;11.30;;;6.40;;
3185;SDS011;1604;53.700;10.252;2023-07-31T04:33:21;11.53;;;5.30;;
3185;SDS011;1604;53.700;10.252;2023-07-31T04:36:23;11.53;;;5.07;;
3185;SDS011;1604;53.700;10.252;2023-07-31T04:39:25;8.10;;;5.40;;
3185;SDS011;1604;53.700;10.252;2023-07-31T04:42:27;14.60;;;6.30;;
3185;SDS011;1604;53.700;10.252;2023-07-31T04:45:30;6.03;;;5.40;;
3185;SDS011;1604;53.700;10.252;2023-07-31T04:48:32;7.27;;;4.90;;
3185;SDS011;1604;53.700;10.252;2023-07-31T04:51:34;7.93;;;4.90;;
3185;SDS011;1604;53.700;10.252;2023-07-31T04:54:36;8.23;;;6.10;;
3185;SDS011;1604;53.700;10.252;2023-07-31T04:57:38;5.73;;;4.90;;
3185;SDS011;1604;53.700;10.252;2023-07-31T05:00:41;6.53;;;5.90;;
3185;SDS011;1604;53.700;10.252;2023-07-31T05:03:43;6.97;;;6.37;;
3185;SDS011;1604;53.700;10.252;2023-07-31T05:06:45;5.50;;;4.90;;
3185;SDS011;1604;53.700;10.252;2023-07-31T05:09:47;8.10;;;5.13;;
3185;SDS011;1604;53.700;10.252;2023-07-31T05:12:48;6.33;;;5.80;;
3185;SDS011;1604;53.700;10.252;2023-07-31T05:15:52;10.80;;;5.40;;
3185;SDS011;1604;53.700;10.252;2023-07-31T05:18:54;6.13;;;5.73;;
3185;SDS011;1604;53.700;10.252;2023-07-31T05:21:56;6.03;;;5.30;;
3185;SDS011;1604;53.700;10.252;2023-07-31T05:24:58;6.23;;;5.70;;
3185;SDS011;1604;53.700;10.252;2023-07-31T05:27:59;5.07;;;4.67;;
3185;SDS011;1604;53.700;10.252;2023-07-31T05:31:03;4.63;;;4.20;;
3185;SDS011;1604;53.700;10.252;2023-07-31T05:34:06;4.43;;;4.13;;
3185;SDS011;1604;53.700;10.252;2023-07-31T05:37:09;6.10;;;3.63;;
3185;SDS011;1604;53.700;10.252;2023-07-31T05:40:12;4.17;;;3.87;;
3185;SDS011;1604;53.700;10.252;2023-07-31T05:43:14;4.33;;;4.03;;
3185;SDS011;1604;53.700;10.252;2023-07-31T05:46:17;4.57;;;4.27;;
3185;SDS011;1604;53.700;10.252;2023-07-31T05:49:19;3.83;;;3.30;;
3185;SDS011;1604;53.700;10.252;2023-07-31T05:52:21;7.00;;;3.90;;
3185;SDS011;1604;53.700;10.252;2023-07-31T05:55:23;6.00;;;4.00;;
3185;SDS011;1604;53.700;10.252;2023-07-31T05:58:26;4.13;;;3.83;;
3185;SDS011;1604;53.700;10.252;2023-07-31T06:01:30;3.93;;;3.70;;
3185;SDS011;1604;53.700;10.252;2023-07-31T06:04:32;4.70;;;4.30;;
3185;SDS011;1604;53.700;10.252;2023-07-31T06:07:34;4.80;;;4.50;;
3185;SDS011;1604;53.700;10.252;2023-07-31T06:10:36;9.80;;;4.73;;
3185;SDS011;1604;53.700;10.252;2023-07-31T06:13:37;5.57;;;5.07;;
3185;SDS011;1604;53.700;10.252;2023-07-31T06:16:41;4.60;;;4.30;;
3185;SDS011;1604;53.700;10.252;2023-07-31T06:19:44;5.30;;;5.00;;
3185;SDS011;1604;53.700;10.252;2023-07-31T06:22:46;5.10;;;4.67;;
3185;SDS011;1604;53.700;10.252;2023-07-31T06:25:47;6.33;;;5.27;;
3185;SDS011;1604;53.700;10.252;2023-07-31T06:28:49;4.87;;;4.50;;
3185;SDS011;1604;53.700;10.252;2023-07-31T06:31:53;4.83;;;4.53;;
3185;SDS011;1604;53.700;10.252;2023-07-31T06:34:54;5.37;;;5.07;;
3185;SDS011;1604;53.700;10.252;2023-07-31T06:37:56;4.90;;;4.70;;
3185;SDS011;1604;53.700;10.252;2023-07-31T06:40:58;5.33;;;4.93;;
3185;SDS011;1604;53.700;10.252;2023-07-31T06:44:00;4.90;;;4.57;;
3185;SDS011;1604;53.700;10.252;2023-07-31T06:47:11;8.33;;;4.87;;
3185;SDS011;1604;53.700;10.252;2023-07-31T06:50:13;5.10;;;4.80;;
3185;SDS011;1604;53.700;10.252;2023-07-31T06:53:15;4.80;;;4.50;;
3185;SDS011;1604;53.700;10.252;2023-07-31T06:56:17;4.63;;;4.40;;
3185;SDS011;1604;53.700;10.252;2023-07-31T06:59:19;4.20;;;3.80;;
3185;SDS011;1604;53.700;10.252;2023-07-31T07:02:23;4.63;;;4.30;;
3185;SDS011;1604;53.700;10.252;2023-07-31T07:05:53;5.13;;;4.20;;
3185;SDS011;1604;53.700;10.252;2023-07-31T07:08:55;3.43;;;3.23;;
3185;SDS011;1604;53.700;10.252;2023-07-31T07:11:57;4.50;;;4.20;;
3185;SDS011;1604;53.700;10.252;2023-07-31T07:14:59;5.93;;;3.70;;
3185;SDS011;1604;53.700;10.252;2023-07-31T07:18:03;4.07;;;3.77;;
3185;SDS011;1604;53.700;10.252;2023-07-31T07:21:05;3.80;;;3.60;;
3185;SDS011;1604;53.700;10.252;2023-07-31T07:24:06;6.90;;;2.90;;
3185;SDS011;1604;53.700;10.252;2023-07-31T07:27:08;3.00;;;2.80;;
3185;SDS011;1604;53.700;10.252;2023-07-31T07:30:10;4.00;;;3.43;;
3185;SDS011;1604;53.700;10.252;2023-07-31T07:33:14;3.33;;;3.13;;
3185;SDS011;1604;53.700;10.252;2023-07-31T07:36:15;4.50;;;4.10;;
3185;SDS011;1604;53.700;10.252;2023-07-31T07:39:17;3.53;;;3.30;;
3185;SDS011;1604;53.700;10.252;2023-07-31T07:42:20;3.50;;;3.30;;
3185;SDS011;1604;53.700;10.252;2023-07-31T07:45:22;3.23;;;2.93;;
3185;SDS011;1604;53.700;10.252;2023-07-31T07:48:25;3.07;;;2.87;;
3185;SDS011;1604;53.700;10.252;2023-07-31T07:51:27;3.30;;;3.10;;
3185;SDS011;1604;53.700;10.252;2023-07-31T07:54:30;2.73;;;2.53;;
3185;SDS011;1604;53.700;10.252;2023-07-31T07:57:32;2.70;;;2.50;;
3185;SDS011;1604;53.700;10.252;2023-07-31T08:00:37;2.57;;;2.47;;
3185;SDS011;1604;53.700;10.252;2023-07-31T08:03:41;2.57;;;2.37;;
3185;SDS011;1604;53.700;10.252;2023-07-31T08:06:43;3.03;;;2.83;;
3185;SDS011;1604;53.700;10.252;2023-07-31T08:09:45;2.40;;;2.20;;
3185;SDS011;1604;53.700;10.252;2023-07-31T08:12:46;7.57;;;2.53;;
3185;SDS011;1604;53.700;10.252;2023-07-31T08:15:48;3.03;;;2.83;;
3185;SDS011;1604;53.700;10.252;2023-07-31T08:18:52;2.80;;;2.60;;
3185;SDS011;1604;53.700;10.252;2023-07-31T08:21:54;2.43;;;2.23;;
3185;SDS011;1604;53.700;10.252;2023-07-31T08:24:56;2.53;;;2.33;;
3185;SDS011;1604;53.700;10.252;2023-07-31T08:27:58;2.00;;;1.90;;
3185;SDS011;1604;53.700;10.252;2023-07-31T08:30:59;2.30;;;2.10;;
3185;SDS011;1604;53.700;10.252;2023-07-31T08:37:35;2.90;;;2.70;;
3185;SDS011;1604;53.700;10.252;2023-07-31T08:40:38;2.73;;;2.53;;
3185;SDS011;1604;53.700;10.252;2023-07-31T08:43:40;2.50;;;2.30;;
3185;SDS011;1604;53.700;10.252;2023-07-31T08:46:43;3.33;;;3.13;;
3185;SDS011;1604;53.700;10.252;2023-07-31T08:49:46;3.93;;;2.90;;
3185;SDS011;1604;53.700;10.252;2023-07-31T08:52:51;3.13;;;2.23;;
3185;SDS011;1604;53.700;10.252;2023-07-31T08:55:53;3.20;;;3.00;;
3185;SDS011;1604;53.700;10.252;2023-07-31T08:58:57;2.73;;;2.53;;
3185;SDS011;1604;53.700;10.252;2023-07-31T09:02:03;3.00;;;2.80;;
3185;SDS011;1604;53.700;10.252;2023-07-31T09:05:08;3.43;;;3.13;;
3185;SDS011;1604;53.700;10.252;2023-07-31T09:08:13;3.30;;;3.10;;
3185;SDS011;1604;53.700;10.252;2023-07-31T09:11:19;3.20;;;3.00;;
3185;SDS011;1604;53.700;10.252;2023-07-31T09:14:24;2.67;;;2.47;;
3185;SDS011;1604;53.700;10.252;2023-07-31T09:17:30;3.23;;;2.93;;
3185;SDS011;1604;53.700;10.252;2023-07-31T09:20:32;2.80;;;2.60;;
3185;SDS011;1604;53.700;10.252;2023-07-31T09:23:42;2.50;;;2.30;;
3185;SDS011;1604;53.700;10.252;2023-07-31T09:26:45;3.07;;;2.87;;
3185;SDS011;1604;53.700;10.252;2023-07-31T09:29:49;5.00;;;2.43;;
3185;SDS011;1604;53.700;10.252;2023-07-31T09:33:00;3.17;;;2.00;;
3185;SDS011;1604;53.700;10.252;2023-07-31T09:36:06;2.20;;;2.10;;
3185;SDS011;1604;53.700;10.252;2023-07-31T09:39:10;3.20;;;3.00;;
3185;SDS011;1604;53.700;10.252;2023-07-31T09:42:12;3.10;;;2.50;;
3185;SDS011;1604;53.700;10.252;2023-07-31T09:45:14;2.57;;;2.37;;
3185;SDS011;1604;53.700;10.252;2023-07-31T09:48:17;3.83;;;2.40;;
3185;SDS011;1604;53.700;10.252;2023-07-31T09:51:25;3.30;;;2.00;;
3185;SDS011;1604;53.700;10.252;2023-07-31T09:54:29;2.83;;;1.43;;
3185;SDS011;1604;53.700;10.252;2023-07-31T09:57:30;1.90;;;1.80;;
3185;SDS011;1604;53.700;10.252;2023-07-31T10:00:34;2.03;;;1.60;;
3185;SDS011;1604;53.700;10.252;2023-07-31T10:03:36;1.97;;;1.80;;
3185;SDS011;1604;53.700;10.252;2023-07-31T10:06:40;1.60;;;1.50;;
3185;SDS011;1604;53.700;10.252;2023-07-31T10:09:48;2.00;;;1.67;;
3185;SDS011;1604;53.700;10.252;2023-07-31T10:12:50;6.30;;;1.40;;
3185;SDS011;1604;53.700;10.252;2023-07-31T10:15:53;1.40;;;1.20;;
3185;SDS011;1604;53.700;10.252;2023-07-31T10:18:59;1.60;;;1.50;;
3185;SDS011;1604;53.700;10.252;2023-07-31T10:22:02;2.30;;;1.53;;
3185;SDS011;1604;53.700;10.252;2023-07-31T10:25:08;4.37;;;4.07;;
3185;SDS011;1604;53.700;10.252;2023-07-31T10:28:10;1.80;;;1.70;;
3185;SDS011;1604;53.700;10.252;2023-07-31T10:31:13;1.50;;;1.40;;
3185;SDS011;1604;53.700;10.252;2023-07-31T10:34:16;1.70;;;1.60;;
3185;SDS011;1604;53.700;10.252;2023-07-31T10:37:22;1.50;;;1.33;;
3185;SDS011;1604;53.700;10.252;2023-07-31T10:40:27;1.50;;;1.37;;
3185;SDS011;1604;53.700;10.252;2023-07-31T10:43:29;1.60;;;1.37;;
3185;SDS011;1604;53.700;10.252;2023-07-31T10:46:34;1.40;;;1.00;;
3185;SDS011;1604;53.700;10.252;2023-07-31T10:49:37;2.20;;;1.27;;
3185;SDS011;1604;53.700;10.252;2023-07-31T10:52:40;2.00;;;1.47;;
3185;SDS011;1604;53.700;10.252;2023-07-31T10:55:48;1.30;;;1.00;;
3185;SDS011;1604;53.700;10.252;2023-07-31T10:59:00;1.50;;;1.10;;
3185;SDS011;1604;53.700;10.252;2023-07-31T11:02:03;2.07;;;1.00;;
3185;SDS011;1604;53.700;10.252;2023-07-31T11:05:08;1.30;;;0.93;;
3185;SDS011;1604;53.700;10.252;2023-07-31T11:08:11;1.30;;;1.00;;
3185;SDS011;1604;53.700;10.252;2023-07-31T11:11:19;1.10;;;0.70;;
3185;SDS011;1604;53.700;10.252;2023-07-31T11:14:22;1.30;;;0.87;;
3185;SDS011;1604;53.700;10.252;2023-07-31T11:17:25;1.10;;;0.70;;
3185;SDS011;1604;53.700;10.252;2023-07-31T11:20:28;1.10;;;0.70;;
3185;SDS011;1604;53.700;10.252;2023-07-31T11:23:30;1.60;;;0.90;;
3185;SDS011;1604;53.700;10.252;2023-07-31T11:26:34;1.30;;;0.87;;
3185;SDS011;1604;53.700;10.252;2023-07-31T11:29:36;1.73;;;0.80;;
3185;SDS011;1604;53.700;10.252;2023-07-31T11:32:38;1.30;;;0.90;;
3185;SDS011;1604;53.700;10.252;2023-07-31T11:35:41;1.20;;;0.70;;
3185;SDS011;1604;53.700;10.252;2023-07-31T11:38:45;1.27;;;0.80;;
3185;SDS011;1604;53.700;10.252;2023-07-31T11:41:48;3.77;;;0.80;;
3185;SDS011;1604;53.700;10.252;2023-07-31T11:44:50;1.23;;;0.80;;
3185;SDS011;1604;53.700;10.252;2023-07-31T11:47:52;1.30;;;0.90;;
3185;SDS011;1604;53.700;10.252;2023-07-31T11:50:57;1.23;;;0.90;;
3185;SDS011;1604;53.700;10.252;2023-07-31T11:54:00;2.70;;;1.30;;
3185;SDS011;1604;53.700;10.252;2023-07-31T11:57:05;1.50;;;1.00;;
3185;SDS011;1604;53.700;10.252;2023-07-31T12:00:08;1.27;;;0.87;;
3185;SDS011;1604;53.700;10.252;2023-07-31T12:03:13;2.97;;;1.03;;
3185;SDS011;1604;53.700;10.252;2023-07-31T12:06:15;1.40;;;1.00;;
3185;SDS011;1604;53.700;10.252;2023-07-31T12:09:17;1.40;;;1.00;;
3185;SDS011;1604;53.700;10.252;2023-07-31T12:12:22;1.60;;;1.23;;
3185;SDS011;1604;53.700;10.252;2023-07-31T12:15:34;1.20;;;0.90;;
3185;SDS011;1604;53.700;10.252;2023-07-31T12:18:38;1.60;;;0.80;;
3185;SDS011;1604;53.700;10.252;2023-07-31T12:21:40;1.80;;;1.00;;
3185;SDS011;1604;53.700;10.252;2023-07-31T12:24:43;1.20;;;0.73;;
3185;SDS011;1604;53.700;10.252;2023-07-31T12:27:47;1.27;;;1.00;;
3185;SDS011;1604;53.700;10.252;2023-07-31T12:30:51;1.37;;;1.13;;
3185;SDS011;1604;53.700;10.252;2023-07-31T12:33:57;2.53;;;1.20;;
3185;SDS011;1604;53.700;10.252;2023-07-31T12:36:59;1.77;;;1.43;;
3185;SDS011;1604;53.700;10.252;2023-07-31T12:40:01;1.43;;;1.30;;
3185;SDS011;1604;53.700;10.252;2023-07-31T12:43:06;2.90;;;2.70;;
3185;SDS011;1604;53.700;10.252;2023-07-31T12:46:08;1.40;;;1.10;;
3185;SDS011;1604;53.700;10.252;2023-07-31T12:49:10;1.93;;;1.10;;
3185;SDS011;1604;53.700;10.252;2023-07-31T12:52:12;2.60;;;1.37;;
3185;SDS011;1604;53.700;10.252;2023-07-31T12:55:14;1.50;;;1.00;;
3185;SDS011;1604;53.700;10.252;2023-07-31T12:58:18;2.97;;;1.13;;
3185;SDS011;1604;53.700;10.252;2023-07-31T13:01:19;6.73;;;1.10;;
3185;SDS011;1604;53.700;10.252;2023-07-31T13:04:22;1.50;;;1.20;;
3185;SDS011;1604;53.700;10.252;2023-07-31T13:07:25;2.87;;;1.13;;
3185;SDS011;1604;53.700;10.252;2023-07-31T13:10:27;2.47;;;1.20;;
3185;SDS011;1604;53.700;10.252;2023-07-31T13:13:31;1.30;;;0.80;;
3185;SDS011;1604;53.700;10.252;2023-07-31T13:16:33;1.60;;;1.20;;
3185;SDS011;1604;53.700;10.252;2023-07-31T13:19:35;2.00;;;1.13;;
3185;SDS011;1604;53.700;10.252;2023-07-31T13:22:37;1.60;;;1.00;;
3185;SDS011;1604;53.700;10.252;2023-07-31T13:25:39;1.40;;;1.10;;
3185;SDS011;1604;53.700;10.252;2023-07-31T13:28:42;1.40;;;0.90;;
3185;SDS011;1604;53.700;10.252;2023-07-31T13:31:44;1.50;;;1.00;;
3185;SDS011;1604;53.700;10.252;2023-07-31T13:34:47;1.60;;;1.00;;
3185;SDS011;1604;53.700;10.252;2023-07-31T13:37:50;3.10;;;1.10;;
3185;SDS011;1604;53.700;10.252;2023-07-31T13:40:52;1.40;;;0.83;;
3185;SDS011;1604;53.700;10.252;2023-07-31T13:43:55;3.10;;;1.20;;
3185;SDS011;1604;53.700;10.252;2023-07-31T13:46:57;1.87;;;1.10;;
3185;SDS011;1604;53.700;10.252;2023-07-31T13:49:58;4.00;;;1.10;;
3185;SDS011;1604;53.700;10.252;2023-07-31T13:53:00;3.23;;;1.07;;
3185;SDS011;1604;53.700;10.252;2023-07-31T13:56:02;1.50;;;1.17;;
3185;SDS011;1604;53.700;10.252;2023-07-31T13:59:06;1.40;;;1.30;;
3185;SDS011;1604;53.700;10.252;2023-07-31T14:02:08;7.43;;;1.53;;
3185;SDS011;1604;53.700;10.252;2023-07-31T14:05:10;1.43;;;1.13;;
3185;SDS011;1604;53.700;10.252;2023-07-31T14:08:14;4.10;;;1.50;;
3185;SDS011;1604;53.700;10.252;2023-07-31T14:11:16;2.23;;;1.57;;
3185;SDS011;1604;53.700;10.252;2023-07-31T14:14:20;2.00;;;1.57;;
3185;SDS011;1604;53.700;10.252;2023-07-31T14:17:22;2.13;;;1.90;;
3185;SDS011;1604;53.700;10.252;2023-07-31T14:20:23;1.50;;;1.20;;
3185;SDS011;1604;53.700;10.252;2023-07-31T14:23:26;2.20;;;1.40;;
3185;SDS011;1604;53.700;10.252;2023-07-31T14:26:28;2.20;;;1.50;;
3185;SDS011;1604;53.700;10.252;2023-07-31T14:29:31;1.50;;;1.40;;
3185;SDS011;1604;53.700;10.252;2023-07-31T14:32:33;3.40;;;1.93;;
3185;SDS011;1604;53.700;10.252;2023-07-31T14:35:37;1.73;;;1.63;;
3185;SDS011;1604;53.700;10.252;2023-07-31T14:38:38;1.50;;;1.10;;
3185;SDS011;1604;53.700;10.252;2023-07-31T14:41:40;5.20;;;1.50;;
3185;SDS011;1604;53.700;10.252;2023-07-31T14:44:44;3.63;;;1.53;;
3185;SDS011;1604;53.700;10.252;2023-07-31T14:47:47;1.40;;;1.20;;
3185;SDS011;1604;53.700;10.252;2023-07-31T14:50:49;1.60;;;1.40;;
3185;SDS011;1604;53.700;10.252;2023-07-31T14:53:51;3.00;;;1.33;;
3185;SDS011;1604;53.700;10.252;2023-07-31T14:56:53;1.70;;;1.33;;
3185;SDS011;1604;53.700;10.252;2023-07-31T14:59:56;2.53;;;1.00;;
3185;SDS011;1604;53.700;10.252;2023-07-31T15:02:58;1.33;;;1.00;;
3185;SDS011;1604;53.700;10.252;2023-07-31T15:06:00;3.10;;;1.33;;
3185;SDS011;1604;53.700;10.252;2023-07-31T15:09:02;1.50;;;1.20;;
3185;SDS011;1604;53.700;10.252;2023-07-31T15:12:05;1.80;;;1.10;;
3185;SDS011;1604;53.700;10.252;2023-07-31T15:15:09;3.93;;;1.27;;
3185;SDS011;1604;53.700;10.252;2023-07-31T15:18:11;1.40;;;1.07;;
3185;SDS011;1604;53.700;10.252;2023-07-31T15:21:13;2.17;;;1.00;;
3185;SDS011;1604;53.700;10.252;2023-07-31T15:24:15;1.40;;;0.90;;
3185;SDS011;1604;53.700;10.252;2023-07-31T15:27:17;1.37;;;0.93;;
3185;SDS011;1604;53.700;10.252;2023-07-31T15:30:20;1.40;;;0.97;;
3185;SDS011;1604;53.700;10.252;2023-07-31T15:33:22;1.37;;;0.90;;
3185;SDS011;1604;53.700;10.252;2023-07-31T15:36:24;3.73;;;1.07;;
3185;SDS011;1604;53.700;10.252;2023-07-31T15:39:26;3.30;;;1.03;;
3185;SDS011;1604;53.700;10.252;2023-07-31T15:42:28;1.40;;;0.90;;
3185;SDS011;1604;53.700;10.252;2023-07-31T15:45:35;1.60;;;1.17;;
3185;SDS011;1604;53.700;10.252;2023-07-31T15:48:37;1.60;;;0.97;;
3185;SDS011;1604;53.700;10.252;2023-07-31T15:51:39;1.30;;;0.73;;
3185;SDS011;1604;53.700;10.252;2023-07-31T15:54:40;1.57;;;1.10;;
3185;SDS011;1604;53.700;10.252;2023-07-31T15:57:42;1.37;;;0.97;;
3185;SDS011;1604;53.700;10.252;2023-07-31T16:00:46;1.60;;;1.03;;
3185;SDS011;1604;53.700;10.252;2023-07-31T16:03:49;1.40;;;1.20;;
3185;SDS011;1604;53.700;10.252;2023-07-31T16:06:52;1.70;;;1.07;;
3185;SDS011;1604;53.700;10.252;2023-07-31T16:09:54;1.50;;;0.90;;
3185;SDS011;1604;53.700;10.252;2023-07-31T16:12:56;1.40;;;1.13;;
3185;SDS011;1604;53.700;10.252;2023-07-31T16:15:59;2.57;;;0.90;;
3185;SDS011;1604;53.700;10.252;2023-07-31T16:19:01;2.87;;;0.90;;
3185;SDS011;1604;53.700;10.252;2023-07-31T16:22:03;1.70;;;0.80;;
3185;SDS011;1604;53.700;10.252;2023-07-31T16:25:09;15.13;;;8.17;;
3185;SDS011;1604;53.700;10.252;2023-07-31T16:28:11;1.40;;;1.00;;
3185;SDS011;1604;53.700;10.252;2023-07-31T16:31:15;2.40;;;1.43;;
3185;SDS011;1604;53.700;10.252;2023-07-31T16:34:17;1.77;;;1.13;;
3185;SDS011;1604;53.700;10.252;2023-07-31T16:37:18;1.60;;;1.20;;
3185;SDS011;1604;53.700;10.252;2023-07-31T16:40:21;2.43;;;1.07;;
3185;SDS011;1604;53.700;10.252;2023-07-31T16:43:23;3.53;;;0.60;;
3185;SDS011;1604;53.700;10.252;2023-07-31T16:46:27;1.67;;;0.93;;
3185;SDS011;1604;53.700;10.252;2023-07-31T16:49:30;2.70;;;1.10;;
3185;SDS011;1604;53.700;10.252;2023-07-31T16:52:32;1.30;;;1.13;;
3185;SDS011;1604;53.700;10.252;2023-07-31T16:55:34;4.43;;;1.20;;
3185;SDS011;1604;53.700;10.252;2023-07-31T16:58:36;14.73;;;1.03;;
3185;SDS011;1604;53.700;10.252;2023-07-31T17:01:39;6.80;;;1.53;;
3185;SDS011;1604;53.700;10.252;2023-07-31T17:04:41;7.23;;;1.33;;
3185;SDS011;1604;53.700;10.252;2023-07-31T17:07:43;1.30;;;0.93;;
3185;SDS011;1604;53.700;10.252;2023-07-31T17:10:45;24.93;;;20.83;;
3185;SDS011;1604;53.700;10.252;2023-07-31T17:13:50;23.43;;;21.00;;
3185;SDS011;1604;53.700;10.252;2023-07-31T17:20:16;2.13;;;1.50;;
3185;SDS011;1604;53.700;10.252;2023-07-31T17:23:24;1.80;;;1.53;;
3185;SDS011;1604;53.700;10.252;2023-07-31T17:26:25;4.13;;;3.30;;
3185;SDS011;1604;53.700;10.252;2023-07-31T17:29:28;6.80;;;2.03;;
3185;SDS011;1604;53.700;10.252;2023-07-31T17:32:32;4.83;;;2.40;;
3185;SDS011;1604;53.700;10.252;2023-07-31T17:35:33;1.50;;;1.20;;
3185;SDS011;1604;53.700;10.252;2023-07-31T17:38:36;3.70;;;1.37;;
3185;SDS011;1604;53.700;10.252;2023-07-31T17:41:38;1.60;;;1.23;;
3185;SDS011;1604;53.700;10.252;2023-07-31T17:44:40;1.77;;;1.30;;
3185;SDS011;1604;53.700;10.252;2023-07-31T17:47:43;1.97;;;1.30;;
3185;SDS011;1604;53.700;10.252;2023-07-31T17:50:47;3.40;;;1.10;;
3185;SDS011;1604;53.700;10.252;2023-07-31T17:53:50;1.60;;;1.40;;
3185;SDS011;1604;53.700;10.252;2023-07-31T17:56:52;1.50;;;1.33;;
3185;SDS011;1604;53.700;10.252;2023-07-31T17:59:54;1.83;;;1.70;;
3185;SDS011;1604;53.700;10.252;2023-07-31T18:02:58;4.60;;;1.70;;
3185;SDS011;1604;53.700;10.252;2023-07-31T18:06:01;2.23;;;1.90;;
3185;SDS011;1604;53.700;10.252;2023-07-31T18:09:03;2.33;;;2.10;;
3185;SDS011;1604;53.700;10.252;2023-07-31T18:12:06;2.17;;;1.97;;
3185;SDS011;1604;53.700;10.252;2023-07-31T18:15:09;2.77;;;1.80;;
3185;SDS011;1604;53.700;10.252;2023-07-31T18:18:26;6.43;;;2.20;;
3185;SDS011;1604;53.700;10.252;2023-07-31T18:21:42;2.30;;;2.10;;
3185;SDS011;1604;53.700;10.252;2023-07-31T18:28:41;2.57;;;2.37;;
3185;SDS011;1604;53.700;10.252;2023-07-31T18:31:43;3.07;;;2.13;;
3185;SDS011;1604;53.700;10.252;2023-07-31T18:35:01;3.00;;;2.80;;
3185;SDS011;1604;53.700;10.252;2023-07-31T18:38:16;3.07;;;2.87;;
3185;SDS011;1604;53.700;10.252;2023-07-31T18:41:18;3.07;;;2.67;;
3185;SDS011;1604;53.700;10.252;2023-07-31T18:44:20;4.40;;;3.30;;
3185;SDS011;1604;53.700;10.252;2023-07-31T18:47:22;4.50;;;4.20;;
3185;SDS011;1604;53.700;10.252;2023-07-31T18:50:26;5.00;;;4.43;;